createdAt,value
2022-12-25T00:02:24.349Z,78.61
2022-12-25T00:04:51.016Z,78.62
2022-12-25T00:07:17.650Z,78.44
2022-12-25T00:09:44.409Z,78.47
2022-12-25T00:12:11.055Z,78.88
2022-12-25T00:14:37.745Z,78.50
2022-12-25T00:17:04.433Z,78.50
2022-12-25T00:19:31.263Z,78.25
2022-12-25T00:21:58.015Z,78.24
2022-12-25T00:24:24.702Z,78.58
2022-12-25T00:26:54.571Z,78.59
2022-12-25T00:29:21.911Z,78.16
2022-12-25T00:31:48.676Z,78.22
2022-12-25T00:34:15.382Z,78.25
2022-12-25T00:36:42.469Z,78.35
2022-12-25T00:39:09.595Z,78.12
2022-12-25T00:41:54.944Z,77.75
2022-12-25T00:44:21.628Z,78.24
2022-12-25T00:46:51.336Z,78.51
2022-12-25T00:49:18.088Z,78.41
2022-12-25T00:51:44.723Z,78.75
2022-12-25T00:54:11.424Z,78.54
2022-12-25T00:56:38.067Z,78.55
2022-12-25T00:59:04.703Z,78.12
2022-12-25T01:01:31.612Z,77.96
2022-12-25T01:03:58.566Z,78.05
2022-12-25T01:06:25.536Z,78.04
2022-12-25T01:09:10.842Z,78.09
2022-12-25T01:11:40.775Z,78.05
2022-12-25T01:14:07.461Z,78.10
2022-12-25T01:16:34.193Z,77.83
2022-12-25T01:19:00.926Z,77.77
2022-12-25T01:21:27.708Z,77.93
2022-12-25T01:23:54.649Z,77.56
2022-12-25T01:26:24.253Z,77.45
2022-12-25T01:28:51.493Z,77.61
2022-12-25T01:31:20.482Z,77.54
2022-12-25T01:33:47.596Z,77.55
2022-12-25T01:36:22.934Z,77.75
2022-12-25T01:38:50.125Z,77.67
2022-12-25T01:41:18.358Z,77.69
2022-12-25T01:44:01.785Z,77.73
2022-12-25T01:46:29.647Z,77.55
2022-12-25T01:49:03.831Z,77.46
2022-12-25T01:51:37.166Z,77.60
2022-12-25T01:54:06.707Z,77.48
2022-12-25T01:56:34.793Z,77.20
2022-12-25T01:59:01.970Z,77.14
2022-12-25T02:01:28.674Z,77.14
2022-12-25T02:04:00.297Z,77.15
2022-12-25T02:06:30.728Z,76.95
2022-12-25T02:08:58.478Z,76.88
2022-12-25T02:11:43.691Z,76.80
2022-12-25T02:14:10.375Z,76.97
2022-12-25T02:16:58.017Z,77.00
2022-12-25T02:19:44.835Z,76.95
2022-12-25T02:22:38.747Z,76.66
2022-12-25T02:25:36.980Z,76.83
2022-12-25T02:28:06.531Z,76.80
2022-12-25T02:30:37.667Z,76.85
2022-12-25T02:33:30.180Z,76.80
2022-12-25T02:35:57.167Z,76.80
2022-12-25T02:39:02.405Z,76.63
2022-12-25T02:41:31.043Z,76.90
2022-12-25T02:44:17.265Z,76.57
2022-12-25T02:47:03.243Z,76.45
2022-12-25T02:49:49.527Z,76.65
2022-12-25T02:52:37.857Z,77.02
2022-12-25T02:55:27.523Z,76.83
2022-12-25T02:58:15.360Z,76.55
2022-12-25T03:01:04.163Z,76.87
2022-12-25T03:03:52.542Z,76.43
2022-12-25T03:06:39.265Z,76.51
2022-12-25T03:09:26.563Z,76.57
2022-12-25T03:11:58.859Z,76.29
2022-12-25T03:14:44.064Z,76.56
2022-12-25T03:17:10.763Z,76.41
2022-12-25T03:19:56.261Z,76.32
2022-12-25T03:22:49.882Z,76.20
2022-12-25T03:25:36.317Z,76.22
2022-12-25T03:28:03.813Z,76.27
2022-12-25T03:31:11.522Z,75.95
2022-12-25T03:34:11.266Z,76.17
2022-12-25T03:37:27.800Z,75.97
2022-12-25T03:40:34.602Z,76.59
2022-12-25T03:43:38.780Z,76.17
2022-12-25T03:46:29.080Z,76.32
2022-12-25T03:49:21.806Z,76.20
2022-12-25T03:52:13.754Z,76.20
2022-12-25T03:55:00.737Z,76.33
2022-12-25T03:57:46.144Z,75.99
2022-12-25T04:00:31.990Z,76.19
2022-12-25T04:03:17.272Z,75.99
2022-12-25T04:06:02.541Z,76.20
2022-12-25T04:08:47.957Z,76.25
2022-12-25T04:11:33.328Z,76.26
2022-12-25T04:14:35.395Z,76.08
2022-12-25T04:17:20.900Z,76.07
2022-12-25T04:20:06.160Z,76.00
2022-12-25T04:22:54.010Z,75.96
2022-12-25T04:25:39.644Z,76.09
2022-12-25T04:28:24.748Z,76.19
2022-12-25T04:31:10.159Z,75.84
2022-12-25T04:33:55.540Z,76.26
2022-12-25T04:36:22.452Z,76.18
2022-12-25T04:38:49.083Z,76.14
2022-12-25T04:41:15.764Z,76.19
2022-12-25T04:43:42.485Z,76.26
2022-12-25T04:46:09.189Z,76.04
2022-12-25T04:48:36.411Z,76.10
2022-12-25T04:51:15.171Z,76.10
2022-12-25T04:53:41.962Z,75.95
2022-12-25T04:56:08.848Z,76.27
2022-12-25T04:58:35.575Z,76.18
2022-12-25T05:01:03.913Z,76.66
2022-12-25T05:03:30.945Z,76.27
2022-12-25T05:05:57.756Z,76.10
2022-12-25T05:08:24.625Z,75.99
2022-12-25T05:10:51.373Z,76.33
2022-12-25T05:13:18.313Z,76.47
2022-12-25T05:15:45.038Z,77.04
2022-12-25T05:18:11.712Z,77.60
2022-12-25T05:20:40.385Z,76.84
2022-12-25T05:23:08.485Z,76.56
2022-12-25T05:25:39.401Z,76.58
2022-12-25T05:28:06.068Z,76.28
2022-12-25T05:30:33.843Z,76.90
2022-12-25T05:33:00.530Z,77.05
2022-12-25T05:35:27.253Z,76.77
2022-12-25T05:37:54.007Z,76.52
2022-12-25T05:40:20.937Z,76.70
2022-12-25T05:42:47.576Z,76.66
2022-12-25T05:45:14.384Z,77.34
2022-12-25T05:47:41.074Z,77.09
2022-12-25T05:50:11.122Z,77.23
2022-12-25T05:52:37.770Z,77.10
2022-12-25T05:55:04.785Z,77.08
2022-12-25T05:57:32.266Z,77.59
2022-12-25T05:59:58.990Z,77.99
2022-12-25T06:02:26.347Z,77.82
2022-12-25T06:04:53.094Z,77.65
2022-12-25T06:07:19.839Z,77.74
2022-12-25T06:09:46.493Z,78.06
2022-12-25T06:12:16.318Z,78.17
2022-12-25T06:14:42.971Z,78.36
2022-12-25T06:17:09.727Z,78.11
2022-12-25T06:19:36.403Z,78.56
2022-12-25T06:22:03.126Z,78.69
2022-12-25T06:24:30.004Z,79.25
2022-12-25T06:26:56.626Z,79.53
2022-12-25T06:29:23.364Z,80.69
2022-12-25T06:31:50.188Z,81.02
2022-12-25T06:34:16.892Z,80.00
2022-12-25T06:36:43.719Z,80.23
2022-12-25T06:39:11.063Z,79.37
2022-12-25T06:41:38.229Z,79.94
2022-12-25T06:44:04.927Z,79.78
2022-12-25T06:46:34.837Z,79.62
2022-12-25T06:49:01.811Z,79.27
2022-12-25T06:51:30.670Z,79.49
2022-12-25T06:53:58.153Z,80.23
2022-12-25T06:56:27.000Z,81.19
2022-12-25T06:58:56.553Z,82.27
2022-12-25T07:01:27.411Z,82.61
2022-12-25T07:03:57.005Z,81.38
2022-12-25T07:06:24.048Z,80.39
2022-12-25T07:08:50.703Z,80.14
2022-12-25T07:11:17.611Z,79.95
2022-12-25T07:13:44.275Z,79.92
2022-12-25T07:16:12.227Z,79.88
2022-12-25T07:18:39.335Z,80.14
2022-12-25T07:21:11.078Z,80.46
2022-12-25T07:23:37.837Z,80.34
2022-12-25T07:26:04.905Z,80.64
2022-12-25T07:28:35.357Z,80.61
2022-12-25T07:31:13.528Z,80.76
2022-12-25T07:33:40.580Z,80.83
2022-12-25T07:36:08.006Z,81.51
2022-12-25T07:38:42.901Z,81.35
2022-12-25T07:41:10.739Z,81.10
2022-12-25T07:43:37.532Z,81.15
2022-12-25T07:46:05.137Z,80.93
2022-12-25T07:48:32.005Z,80.92
2022-12-25T07:51:00.315Z,80.96
2022-12-25T07:53:30.169Z,81.45
2022-12-25T07:56:05.662Z,81.33
2022-12-25T07:58:35.346Z,81.07
2022-12-25T08:01:07.242Z,81.42
2022-12-25T08:03:35.425Z,81.56
2022-12-25T08:06:04.340Z,81.34
2022-12-25T08:08:31.094Z,81.13
2022-12-25T08:10:57.845Z,81.57
2022-12-25T08:13:24.487Z,81.30
2022-12-25T08:15:51.175Z,81.22
2022-12-25T08:18:17.766Z,81.21
2022-12-25T08:20:44.488Z,81.27
2022-12-25T08:23:11.309Z,81.48
2022-12-25T08:25:37.905Z,81.60
2022-12-25T08:28:05.012Z,81.58
2022-12-25T08:30:31.794Z,81.86
2022-12-25T08:32:58.502Z,81.62
2022-12-25T08:35:26.346Z,81.89
2022-12-25T08:37:52.991Z,82.34
2022-12-25T08:40:19.707Z,82.10
2022-12-25T08:42:46.427Z,81.78
2022-12-25T08:45:13.071Z,82.26
2022-12-25T08:47:39.791Z,82.51
2022-12-25T08:50:07.288Z,82.25
2022-12-25T08:52:34.254Z,82.12
2022-12-25T08:55:00.946Z,82.50
2022-12-25T08:57:27.592Z,82.39
2022-12-25T08:59:54.382Z,81.57
2022-12-25T09:02:21.179Z,81.70
2022-12-25T09:04:48.331Z,82.39
2022-12-25T09:07:15.038Z,82.11
2022-12-25T09:09:43.632Z,82.13
2022-12-25T09:12:10.428Z,82.10
2022-12-25T09:14:37.152Z,81.73
2022-12-25T09:17:03.968Z,81.45
2022-12-25T09:19:31.560Z,81.50
2022-12-25T09:21:58.426Z,81.56
2022-12-25T09:24:25.251Z,81.71
2022-12-25T09:26:52.066Z,82.21
2022-12-25T09:29:19.130Z,82.08
2022-12-25T09:31:45.778Z,82.13
2022-12-25T09:34:17.085Z,82.64
2022-12-25T09:36:45.601Z,82.78
2022-12-25T09:39:12.262Z,82.81
2022-12-25T09:41:58.875Z,82.08
2022-12-25T09:44:28.958Z,82.16
2022-12-25T09:47:02.882Z,82.17
2022-12-25T09:49:39.833Z,82.26
2022-12-25T09:52:12.022Z,83.20
2022-12-25T09:54:44.798Z,82.77
2022-12-25T09:57:13.132Z,82.69
2022-12-25T09:59:40.206Z,82.53
2022-12-25T10:02:26.658Z,83.35
2022-12-25T10:05:08.712Z,83.56
2022-12-25T10:08:11.611Z,82.99
2022-12-25T10:10:59.907Z,82.55
2022-12-25T10:13:38.522Z,82.87
2022-12-25T10:16:26.503Z,82.87
2022-12-25T10:18:59.434Z,82.75
2022-12-25T10:21:28.078Z,82.84
2022-12-25T10:24:11.018Z,82.70
2022-12-25T10:26:37.667Z,83.05
2022-12-25T10:29:15.919Z,82.48
2022-12-25T10:31:46.095Z,82.21
2022-12-25T10:34:14.362Z,82.31
2022-12-25T10:36:42.425Z,82.13
2022-12-25T10:39:15.787Z,81.95
2022-12-25T10:42:20.142Z,82.58
2022-12-25T10:44:58.961Z,82.79
2022-12-25T10:47:28.551Z,83.34
2022-12-25T10:49:55.753Z,83.39
2022-12-25T10:52:27.900Z,83.27
2022-12-25T10:54:55.058Z,82.81
2022-12-25T10:57:24.690Z,83.01
2022-12-25T10:59:56.151Z,83.04
2022-12-25T11:02:31.347Z,83.22
2022-12-25T11:05:02.895Z,83.80
2022-12-25T11:07:30.191Z,83.39
2022-12-25T11:10:05.120Z,83.37
2022-12-25T11:12:35.690Z,83.50
2022-12-25T11:15:06.555Z,83.66
2022-12-25T11:17:33.343Z,83.57
2022-12-25T11:20:01.548Z,83.80
2022-12-25T11:22:31.071Z,83.96
2022-12-25T11:24:57.743Z,84.08
2022-12-25T11:27:28.062Z,83.75
2022-12-25T11:29:58.229Z,83.85
2022-12-25T11:32:34.542Z,84.03
2022-12-25T11:35:01.913Z,83.81
2022-12-25T11:37:34.187Z,84.13
2022-12-25T11:40:01.578Z,84.26
2022-12-25T11:42:40.485Z,84.08
2022-12-25T11:45:29.681Z,83.80
2022-12-25T11:48:02.975Z,83.75
2022-12-25T11:50:36.096Z,83.89
2022-12-25T11:53:06.576Z,84.01
2022-12-25T11:55:40.286Z,84.16
2022-12-25T11:58:16.201Z,83.50
2022-12-25T12:00:43.745Z,83.71
2022-12-25T12:03:24.381Z,84.20
2022-12-25T12:05:57.855Z,84.03
2022-12-25T12:08:24.525Z,84.40
2022-12-25T12:11:27.957Z,83.97
2022-12-25T12:14:20.371Z,84.59
2022-12-25T12:16:47.154Z,84.81
2022-12-25T12:19:29.087Z,85.37
2022-12-25T12:21:57.765Z,85.15
2022-12-25T12:24:28.664Z,84.91
2022-12-25T12:27:04.673Z,84.51
2022-12-25T12:29:40.457Z,84.73
2022-12-25T12:32:32.021Z,84.93
2022-12-25T12:34:58.894Z,84.33
2022-12-25T12:37:33.436Z,84.46
2022-12-25T12:40:05.862Z,84.29
2022-12-25T12:42:39.045Z,84.41
2022-12-25T12:45:11.101Z,84.91
2022-12-25T12:47:39.100Z,84.91
2022-12-25T12:50:06.728Z,85.47
2022-12-25T12:52:41.082Z,85.23
2022-12-25T12:55:13.270Z,84.68
2022-12-25T12:57:40.710Z,84.92
2022-12-25T13:00:10.138Z,84.42
2022-12-25T13:02:56.800Z,84.97
2022-12-25T13:05:46.315Z,84.85
2022-12-25T13:08:25.781Z,84.93
2022-12-25T13:11:18.778Z,85.54
2022-12-25T13:13:46.888Z,85.18
2022-12-25T13:16:20.112Z,85.57
2022-12-25T13:18:51.785Z,84.73
2022-12-25T13:21:22.524Z,84.58
2022-12-25T13:23:56.313Z,85.40
2022-12-25T13:26:23.925Z,85.10
2022-12-25T13:28:50.538Z,84.69
2022-12-25T13:31:23.029Z,84.79
2022-12-25T13:33:59.471Z,85.13
2022-12-25T13:36:27.641Z,85.21
2022-12-25T13:38:56.948Z,85.08
2022-12-25T13:41:55.642Z,84.73
2022-12-25T13:44:26.677Z,85.71
2022-12-25T13:46:53.437Z,85.84
2022-12-25T13:49:22.474Z,85.45
2022-12-25T13:51:49.670Z,85.91
2022-12-25T13:54:17.917Z,85.72
2022-12-25T13:56:50.686Z,85.23
2022-12-25T13:59:20.227Z,84.96
2022-12-25T14:01:48.296Z,84.85
2022-12-25T14:04:17.147Z,84.49
2022-12-25T14:06:43.927Z,84.72
2022-12-25T14:09:12.144Z,84.62
2022-12-25T14:11:40.869Z,85.22
2022-12-25T14:14:15.469Z,85.33
2022-12-25T14:16:43.644Z,85.08
2022-12-25T14:19:24.224Z,84.86
2022-12-25T14:21:59.901Z,85.43
2022-12-25T14:24:30.765Z,85.34
2022-12-25T14:27:02.855Z,84.82
2022-12-25T14:29:35.695Z,84.44
2022-12-25T14:32:07.604Z,84.76
2022-12-25T14:34:34.590Z,84.94
2022-12-25T14:37:02.186Z,84.90
2022-12-25T14:39:35.896Z,84.49
2022-12-25T14:42:20.431Z,85.31
2022-12-25T14:45:03.484Z,85.57
2022-12-25T14:47:32.086Z,85.73
2022-12-25T14:49:59.880Z,85.58
2022-12-25T14:52:52.986Z,85.27
2022-12-25T14:55:24.739Z,85.03
2022-12-25T14:57:58.818Z,85.30
2022-12-25T15:00:35.559Z,85.31
2022-12-25T15:03:04.782Z,85.76
2022-12-25T15:05:39.776Z,85.59
2022-12-25T15:08:10.353Z,84.73
2022-12-25T15:13:28.476Z,85.40
2022-12-25T15:16:00.036Z,85.51
2022-12-25T15:18:30.397Z,85.90
2022-12-25T15:20:57.314Z,85.57
2022-12-25T15:23:25.511Z,85.37
2022-12-25T15:25:52.604Z,85.50
2022-12-25T15:28:19.315Z,85.70
2022-12-25T15:30:50.007Z,85.46
2022-12-25T15:33:18.669Z,85.81
2022-12-25T15:35:45.801Z,85.12
2022-12-25T15:38:13.403Z,85.93
2022-12-25T15:40:41.260Z,85.88
2022-12-25T15:43:14.378Z,86.00
2022-12-25T15:45:47.563Z,85.70
2022-12-25T15:48:14.309Z,85.44
2022-12-25T15:50:44.362Z,86.00
2022-12-25T15:53:11.319Z,86.31
2022-12-25T15:55:39.569Z,85.68
2022-12-25T15:58:06.222Z,85.70
2022-12-25T16:00:32.885Z,85.81
2022-12-25T16:02:59.717Z,85.48
2022-12-25T16:05:26.877Z,85.75
2022-12-25T16:07:53.551Z,85.84
2022-12-25T16:10:23.042Z,85.88
2022-12-25T16:12:49.659Z,86.15
2022-12-25T16:15:16.466Z,86.11
2022-12-25T16:17:43.100Z,86.34
2022-12-25T16:20:10.188Z,86.62
2022-12-25T16:22:40.114Z,86.37
2022-12-25T16:25:15.071Z,86.58
2022-12-25T16:27:41.889Z,86.65
2022-12-25T16:30:09.790Z,86.32
2022-12-25T16:32:36.547Z,86.55
2022-12-25T16:35:04.010Z,86.69
2022-12-25T16:37:30.766Z,86.67
2022-12-25T16:39:57.447Z,86.40
2022-12-25T16:42:24.362Z,86.80
2022-12-25T16:44:51.155Z,86.86
2022-12-25T16:47:17.945Z,86.75
2022-12-25T16:49:44.650Z,87.13
2022-12-25T16:52:11.294Z,87.03
2022-12-25T16:54:37.913Z,87.38
2022-12-25T16:57:04.623Z,87.14
2022-12-25T16:59:33.121Z,88.37
2022-12-25T17:01:59.967Z,88.02
2022-12-25T17:04:27.673Z,88.38
2022-12-25T17:06:54.307Z,88.39
2022-12-25T17:09:21.152Z,88.24
2022-12-25T17:11:47.876Z,88.01
2022-12-25T17:14:15.754Z,88.75
2022-12-25T17:16:42.666Z,88.72
2022-12-25T17:19:18.230Z,88.59
2022-12-25T17:21:44.976Z,88.65
2022-12-25T17:24:11.778Z,88.65
2022-12-25T17:26:40.754Z,88.56
2022-12-25T17:29:08.267Z,88.73
2022-12-25T17:31:35.188Z,89.29
2022-12-25T17:34:02.655Z,89.37
2022-12-25T17:36:29.626Z,89.92
2022-12-25T17:38:56.547Z,89.22
2022-12-25T17:41:23.362Z,89.57
2022-12-25T17:43:50.471Z,89.43
2022-12-25T17:46:22.502Z,89.29
2022-12-25T17:48:50.244Z,89.35
2022-12-25T17:51:22.569Z,89.13
2022-12-25T17:53:55.522Z,89.11
2022-12-25T17:56:23.352Z,89.58
2022-12-25T17:58:55.030Z,89.22
2022-12-25T18:01:23.636Z,89.08
2022-12-25T18:03:51.376Z,89.02
2022-12-25T18:06:20.417Z,88.99
2022-12-25T18:08:50.301Z,89.53
2022-12-25T18:11:20.485Z,89.27
2022-12-25T18:13:50.096Z,89.33
2022-12-25T18:16:17.541Z,89.50
2022-12-25T18:18:51.529Z,89.74
2022-12-25T18:21:21.467Z,89.93
2022-12-25T18:23:48.806Z,89.74
2022-12-25T18:26:15.439Z,90.11
2022-12-25T18:28:44.028Z,89.72
2022-12-25T18:31:13.816Z,90.19
2022-12-25T18:33:41.380Z,90.13
2022-12-25T18:36:09.155Z,89.52
2022-12-25T18:38:35.953Z,90.09
2022-12-25T18:41:05.350Z,90.52
2022-12-25T18:43:52.254Z,90.21
2022-12-25T18:46:22.464Z,90.61
2022-12-25T18:48:49.317Z,90.72
2022-12-25T18:51:16.054Z,90.45
2022-12-25T18:53:42.819Z,90.71
2022-12-25T18:56:12.168Z,90.71
2022-12-25T18:58:40.176Z,90.05
2022-12-25T19:01:17.519Z,90.24
2022-12-25T19:03:45.219Z,91.07
2022-12-25T19:06:24.383Z,90.90
2022-12-25T19:08:51.632Z,90.70
2022-12-25T19:11:19.267Z,90.71
2022-12-25T19:13:46.456Z,91.09
2022-12-25T19:16:13.310Z,90.97
2022-12-25T19:18:40.708Z,91.83
2022-12-25T19:21:08.988Z,90.93
2022-12-25T19:23:38.013Z,90.66
2022-12-25T19:26:06.111Z,91.54
2022-12-25T19:28:32.971Z,90.86
2022-12-25T19:31:00.514Z,91.69
2022-12-25T19:33:27.255Z,91.08
2022-12-25T19:35:53.946Z,91.38
2022-12-25T19:38:20.795Z,91.74
2022-12-25T19:41:00.708Z,91.58
2022-12-25T19:43:29.848Z,91.81
2022-12-25T19:45:59.961Z,92.20
2022-12-25T19:48:26.816Z,90.97
2022-12-25T19:50:53.656Z,90.72
2022-12-25T19:53:23.308Z,91.26
2022-12-25T19:55:52.460Z,91.54
2022-12-25T19:58:20.117Z,91.89
2022-12-25T20:00:59.920Z,91.22
2022-12-25T20:03:26.912Z,91.30
2022-12-25T20:05:54.189Z,90.75
2022-12-25T20:08:24.479Z,90.87
2022-12-25T20:10:51.342Z,91.25
2022-12-25T20:13:18.243Z,91.73
2022-12-25T20:15:45.313Z,91.37
2022-12-25T20:18:12.243Z,90.32
2022-12-25T20:20:38.932Z,90.93
2022-12-25T20:23:06.394Z,90.33
2022-12-25T20:25:33.510Z,91.42
2022-12-25T20:28:00.203Z,91.41
2022-12-25T20:30:27.182Z,91.67
2022-12-25T20:32:55.316Z,91.36
2022-12-25T20:35:22.173Z,91.05
2022-12-25T20:37:49.077Z,91.27
2022-12-25T20:40:15.868Z,91.47
2022-12-25T20:42:43.546Z,91.76
2022-12-25T20:45:12.619Z,91.27
2022-12-25T20:47:39.293Z,91.88
2022-12-25T20:50:06.618Z,92.01
2022-12-25T20:52:33.436Z,91.18
2022-12-25T20:55:00.103Z,91.89
2022-12-25T20:57:27.732Z,91.96
2022-12-25T20:59:54.806Z,91.99
2022-12-25T21:02:35.097Z,91.95
2022-12-25T21:05:03.603Z,91.73
2022-12-25T21:07:30.469Z,91.96
2022-12-25T21:09:57.280Z,92.52
2022-12-25T21:12:23.981Z,92.03
2022-12-25T21:14:50.822Z,92.32
2022-12-25T21:17:17.757Z,91.95
2022-12-25T21:19:44.586Z,91.72
2022-12-25T21:22:11.252Z,91.58
2022-12-25T21:24:38.007Z,92.42
2022-12-25T21:27:04.652Z,91.68
2022-12-25T21:29:31.384Z,91.92
2022-12-25T21:32:19.807Z,92.67
2022-12-25T21:34:46.500Z,92.83
2022-12-25T21:37:13.329Z,92.11
2022-12-25T21:39:40.156Z,92.06
2022-12-25T21:42:06.934Z,92.71
2022-12-25T21:44:33.698Z,93.31
2022-12-25T21:47:00.544Z,93.35
2022-12-25T21:49:45.864Z,93.37
2022-12-25T21:52:12.729Z,93.04
2022-12-25T21:54:39.581Z,93.67
2022-12-25T21:57:06.293Z,92.96
2022-12-25T21:59:33.068Z,92.68
2022-12-25T22:01:59.880Z,92.60
2022-12-25T22:04:26.684Z,93.96
2022-12-25T22:07:11.971Z,94.11
2022-12-25T22:09:38.737Z,94.21
2022-12-25T22:12:28.604Z,93.23
2022-12-25T22:15:03.218Z,93.45
2022-12-25T22:17:53.958Z,93.52
2022-12-25T22:20:26.850Z,93.31
2022-12-25T22:22:54.422Z,92.81
2022-12-25T22:25:21.447Z,92.98
2022-12-25T22:27:48.834Z,93.20
2022-12-25T22:30:18.563Z,93.86
2022-12-25T22:32:46.524Z,93.47
2022-12-25T22:35:14.090Z,93.59
2022-12-25T22:37:41.645Z,93.76
2022-12-25T22:40:10.343Z,93.77
2022-12-25T22:42:37.298Z,93.72
2022-12-25T22:45:04.722Z,92.66
2022-12-25T22:47:31.491Z,92.96
2022-12-25T22:49:58.277Z,93.41
2022-12-25T22:52:27.961Z,92.56
2022-12-25T22:54:54.679Z,92.37
2022-12-25T22:57:21.543Z,92.90
2022-12-25T22:59:48.556Z,93.05
2022-12-25T23:02:15.524Z,92.71
2022-12-25T23:04:42.390Z,92.82
2022-12-25T23:07:10.543Z,92.83
2022-12-25T23:09:37.186Z,92.95
2022-12-25T23:12:04.124Z,92.80
2022-12-25T23:14:39.728Z,92.27
2022-12-25T23:17:31.637Z,92.57
2022-12-25T23:20:18.088Z,92.28
2022-12-25T23:23:03.357Z,92.30
2022-12-25T23:26:05.408Z,91.73
2022-12-25T23:28:51.000Z,92.47
2022-12-25T23:31:19.223Z,92.73
2022-12-25T23:33:45.843Z,93.07
2022-12-25T23:36:12.542Z,93.00
2022-12-25T23:38:39.181Z,92.88
2022-12-25T23:41:05.925Z,92.77
2022-12-25T23:43:32.632Z,91.81
2022-12-25T23:45:59.414Z,92.38
2022-12-25T23:48:26.181Z,92.41
2022-12-25T23:50:52.854Z,93.06
2022-12-25T23:53:19.472Z,93.22
2022-12-25T23:55:51.583Z,92.66
2022-12-25T23:58:22.059Z,91.48
